Time;durP1;ratioP1;P1;durP2;ratioP2;P2;SDS_P1;SDS_P2;PMS_P1;PMS_P2;Temp;Humidity;BMP_temperature;BMP_pressure;BME280_temperature;BME280_humidity;BME280_pressure;Samples;Min_cycle;Max_cycle;Signal;HPM_P1;HPM_P2
2023/04/09 00:02:10;;;;;;;11.48;9.90;;;24.80;49.00;;;;;;5072315;28;20362;-62
2023/04/09 00:04:58;;;;;;;13.85;11.20;;;24.80;49.50;;;;;;5071398;28;20636;-62
2023/04/09 00:07:46;;;;;;;11.35;10.25;;;24.70;49.50;;;;;;5071727;28;20373;-62
2023/04/09 00:10:36;;;;;;;11.27;10.15;;;24.70;53.80;;;;;;5072756;28;20233;-62
2023/04/09 00:13:24;;;;;;;11.05;9.93;;;24.80;49.80;;;;;;5070505;28;20249;-62
2023/04/09 00:16:25;;;;;;;12.35;11.05;;;24.70;49.50;;;;;;5072087;28;20192;-62
2023/04/09 00:19:13;;;;;;;10.27;9.18;;;24.80;49.50;;;;;;5071434;28;20197;-62
2023/04/09 00:22:01;;;;;;;11.18;10.00;;;25.00;48.90;;;;;;5071669;28;20594;-62
2023/04/09 00:24:50;;;;;;;11.02;9.93;;;25.00;49.20;;;;;;5071487;28;20262;-62
2023/04/09 00:27:39;;;;;;;12.02;10.93;;;25.10;49.20;;;;;;5071902;28;20205;-62
2023/04/09 00:30:28;;;;;;;11.07;9.90;;;25.20;48.80;;;;;;5070934;28;20232;-62
2023/04/09 00:33:16;;;;;;;12.35;11.10;;;25.30;49.10;;;;;;5070442;28;20276;-61
2023/04/09 00:36:05;;;;;;;12.02;10.80;;;25.30;49.10;;;;;;5071320;28;20279;-62
2023/04/09 00:38:53;;;;;;;11.98;10.75;;;25.20;49.00;;;;;;5071619;28;20201;-62
2023/04/09 00:41:41;;;;;;;11.98;10.52;;;25.10;48.50;;;;;;5071776;28;20794;-62
2023/04/09 00:44:31;;;;;;;12.68;11.32;;;25.10;49.10;;;;;;5071153;28;20645;-62
2023/04/09 00:47:19;;;;;;;13.57;11.77;;;25.00;49.10;;;;;;5070676;28;20201;-62
2023/04/09 00:50:08;;;;;;;12.38;11.10;;;25.00;49.10;;;;;;5071223;28;20699;-62
2023/04/09 00:52:56;;;;;;;11.57;10.38;;;24.90;48.60;;;;;;5070639;28;20257;-62
2023/04/09 00:55:45;;;;;;;15.43;12.70;;;24.90;49.30;;;;;;5070919;28;20208;-62
2023/04/09 00:58:33;;;;;;;11.65;10.45;;;24.80;49.20;;;;;;5053036;28;20207;-62
2023/04/09 01:01:23;;;;;;;11.07;9.98;;;24.70;48.70;;;;;;5050740;28;20769;-62
2023/04/09 01:04:11;;;;;;;14.15;11.98;;;24.80;49.40;;;;;;5051290;28;20231;-62
2023/04/09 01:07:07;;;;;;;12.13;10.93;;;24.70;49.20;;;;;;5050728;28;20284;-61
2023/04/09 01:10:01;;;;;;;13.40;11.93;;;24.80;49.20;;;;;;5050540;28;20290;-62
2023/04/09 01:13:07;;;;;;;14.18;11.75;;;24.70;48.70;;;;;;5050376;28;20665;-62
2023/04/09 01:15:59;;;;;;;12.73;11.43;;;24.70;49.20;;;;;;5050628;28;20249;-62
2023/04/09 01:18:52;;;;;;;13.20;11.88;;;24.70;49.30;;;;;;5050575;28;20229;-63
2023/04/09 01:21:42;;;;;;;12.10;10.90;;;24.70;48.80;;;;;;5050299;28;20225;-62
2023/04/09 01:24:39;;;;;;;13.00;11.70;;;24.70;49.30;;;;;;5050887;28;20713;-62
2023/04/09 01:27:37;;;;;;;13.75;12.30;;;24.60;49.30;;;;;;5051655;28;20207;-62
2023/04/09 01:30:28;;;;;;;12.55;11.18;;;23.80;48.40;;;;;;5050329;28;20197;-62
2023/04/09 01:33:18;;;;;;;13.45;11.43;;;24.60;49.40;;;;;;5050408;28;20270;-62
2023/04/09 01:36:07;;;;;;;14.07;12.57;;;24.50;49.40;;;;;;5051060;28;20205;-61
2023/04/09 01:38:56;;;;;;;15.20;12.23;;;24.60;49.30;;;;;;5051040;28;20208;-62
2023/04/09 01:41:46;;;;;;;13.38;11.63;;;24.70;48.70;;;;;;5051361;28;20311;-62
2023/04/09 01:44:34;;;;;;;12.63;11.30;;;24.70;49.20;;;;;;5050290;28;20729;-62
2023/04/09 01:47:24;;;;;;;14.75;11.68;;;24.90;49.20;;;;;;5049985;28;20284;-61
2023/04/09 01:50:12;;;;;;;12.15;10.85;;;24.90;49.00;;;;;;5050961;28;20256;-62
2023/04/09 01:53:01;;;;;;;13.18;11.88;;;25.00;48.40;;;;;;5059375;28;20313;-62
2023/04/09 01:55:49;;;;;;;12.23;11.00;;;25.00;49.50;;;;;;5051307;28;20236;-62
2023/04/09 01:58:37;;;;;;;12.18;10.90;;;25.10;48.90;;;;;;5070662;28;20213;-61
2023/04/09 02:01:31;;;;;;;14.02;12.45;;;25.00;48.30;;;;;;5069917;28;20228;-61
2023/04/09 02:04:24;;;;;;;14.05;11.95;;;25.00;48.90;;;;;;5070321;28;20704;-62
2023/04/09 02:07:18;;;;;;;12.57;11.32;;;25.00;48.80;;;;;;5070185;28;20282;-62
2023/04/09 02:10:10;;;;;;;14.00;12.25;;;24.90;48.90;;;;;;5070249;28;20331;-62
2023/04/09 02:13:01;;;;;;;11.55;10.45;;;24.80;48.40;;;;;;5070473;28;20201;-62
2023/04/09 02:15:51;;;;;;;12.52;11.05;;;24.80;49.00;;;;;;5069775;28;20201;-62
2023/04/09 02:18:39;;;;;;;15.02;12.45;;;24.70;48.90;;;;;;5070137;28;20208;-62
2023/04/09 02:21:30;;;;;;;11.68;10.48;;;24.70;48.50;;;;;;5070294;28;20709;-62
2023/04/09 02:24:18;;;;;;;13.40;12.07;;;24.70;48.90;;;;;;5070946;28;20583;-63
2023/04/09 02:27:07;;;;;;;12.90;11.65;;;24.70;48.90;;;;;;5070037;28;20326;-61
2023/04/09 02:29:55;;;;;;;13.32;11.70;;;24.70;48.90;;;;;;5071008;28;20216;-62
2023/04/09 02:32:43;;;;;;;11.55;10.35;;;24.70;48.40;;;;;;5069288;28;20248;-62
2023/04/09 02:35:31;;;;;;;12.93;11.10;;;24.70;48.90;;;;;;5071356;28;20196;-62
2023/04/09 02:38:20;;;;;;;13.60;12.30;;;24.70;49.00;;;;;;5074048;28;20681;-62
2023/04/09 02:41:09;;;;;;;13.43;11.63;;;24.70;48.40;;;;;;5073470;28;20233;-62
2023/04/09 02:43:57;;;;;;;12.65;11.35;;;24.70;48.90;;;;;;5074583;28;20248;-62
2023/04/09 02:46:48;;;;;;;11.77;10.68;;;24.70;49.00;;;;;;5073226;28;20645;-62
2023/04/09 02:49:36;;;;;;;13.95;12.02;;;24.70;49.00;;;;;;5074029;28;20204;-62
2023/04/09 02:52:24;;;;;;;12.80;11.50;;;24.70;48.40;;;;;;5073510;28;20256;-62
2023/04/09 02:55:14;;;;;;;14.98;12.45;;;24.70;48.90;;;;;;5073409;28;20286;-62
2023/04/09 02:58:02;;;;;;;13.35;11.32;;;24.70;48.90;;;;;;5059634;28;20753;-62
2023/04/09 03:00:50;;;;;;;13.65;11.73;;;24.60;48.40;;;;;;5053154;28;20663;-62
2023/04/09 03:03:40;;;;;;;13.98;11.60;;;24.60;48.90;;;;;;5052676;28;20212;-62
2023/04/09 03:06:29;;;;;;;14.25;12.63;;;24.50;48.80;;;;;;5052824;28;20203;-62
2023/04/09 03:09:17;;;;;;;12.13;10.88;;;24.40;48.90;;;;;;5053429;28;20201;-62
2023/04/09 03:12:07;;;;;;;12.43;10.95;;;24.40;48.60;;;;;;5052490;28;20804;-62
2023/04/09 03:14:55;;;;;;;12.65;11.35;;;24.50;49.10;;;;;;5053464;28;20278;-62
2023/04/09 03:17:43;;;;;;;12.80;11.40;;;24.40;48.90;;;;;;5052784;28;20263;-62
2023/04/09 03:20:31;;;;;;;12.38;10.60;;;24.80;53.20;;;;;;5052462;28;20278;-62
2023/04/09 03:23:19;;;;;;;11.02;9.57;;;24.70;48.90;;;;;;5052574;28;20258;-62
2023/04/09 03:26:07;;;;;;;12.43;10.70;;;24.70;48.70;;;;;;5053389;28;20263;-62
2023/04/09 03:28:56;;;;;;;12.57;10.80;;;24.70;48.70;;;;;;5052260;28;20200;-62
2023/04/09 03:31:44;;;;;;;12.48;11.18;;;24.70;48.00;;;;;;5052400;28;20221;-62
2023/04/09 03:34:32;;;;;;;14.77;12.10;;;24.80;48.70;;;;;;5052577;28;20251;-62
2023/04/09 03:37:20;;;;;;;13.88;11.75;;;24.70;48.60;;;;;;5054093;28;20213;-62
2023/04/09 03:40:09;;;;;;;11.65;10.55;;;24.70;48.50;;;;;;5052557;28;20696;-62
2023/04/09 03:42:57;;;;;;;12.52;11.18;;;24.70;48.00;;;;;;5052826;28;20760;-62
2023/04/09 03:45:47;;;;;;;12.07;10.68;;;24.90;48.70;;;;;;5052280;28;20308;-62
2023/04/09 03:48:35;;;;;;;13.98;11.80;;;24.70;48.50;;;;;;5052075;28;20693;-62
2023/04/09 03:51:23;;;;;;;12.70;11.30;;;24.70;48.00;;;;;;5052220;28;20323;-62
2023/04/09 03:54:11;;;;;;;12.20;10.90;;;24.90;48.60;;;;;;5052026;28;20276;-62
2023/04/09 03:57:00;;;;;;;13.38;10.77;;;24.70;48.40;;;;;;5059910;28;20205;-62
2023/04/09 03:59:48;;;;;;;13.43;11.52;;;24.80;48.50;;;;;;5071884;28;20197;-62
2023/04/09 04:02:37;;;;;;;12.77;11.48;;;24.70;47.90;;;;;;5071318;28;20269;-62
2023/04/09 04:05:26;;;;;;;11.98;10.45;;;24.80;48.50;;;;;;5072011;28;20220;-62
2023/04/09 04:08:14;;;;;;;11.73;10.52;;;24.70;48.60;;;;;;5071682;28;20691;-62
2023/04/09 04:11:05;;;;;;;13.50;12.10;;;24.60;48.00;;;;;;5071774;28;20244;-62
2023/04/09 04:13:54;;;;;;;12.23;10.55;;;24.60;48.60;;;;;;5072703;28;20291;-62
2023/04/09 04:16:42;;;;;;;13.60;12.10;;;24.50;48.50;;;;;;5071411;28;20235;-62
2023/04/09 04:19:32;;;;;;;13.07;11.65;;;24.50;48.60;;;;;;5071894;28;20581;-62
2023/04/09 04:22:20;;;;;;;13.20;11.63;;;24.50;48.20;;;;;;5071072;28;20786;-62
2023/04/09 04:25:09;;;;;;;12.35;11.05;;;24.50;48.60;;;;;;5071189;28;20635;-62
2023/04/09 04:27:57;;;;;;;11.77;10.75;;;24.50;48.60;;;;;;5072620;28;20201;-62
2023/04/09 04:30:45;;;;;;;12.20;11.02;;;24.50;48.00;;;;;;5072471;28;20327;-62
2023/04/09 04:33:33;;;;;;;13.88;11.73;;;24.60;48.70;;;;;;5071181;28;20215;-62
2023/04/09 04:36:23;;;;;;;13.25;11.95;;;24.50;48.50;;;;;;5071607;28;20197;-62
2023/04/09 04:39:11;;;;;;;13.02;11.15;;;24.60;48.60;;;;;;5071376;28;20200;-62
2023/04/09 04:42:00;;;;;;;13.20;11.90;;;24.50;48.00;;;;;;5070713;28;20311;-62
2023/04/09 04:44:48;;;;;;;12.48;11.18;;;24.50;48.60;;;;;;5071041;28;20218;-61
2023/04/09 04:47:36;;;;;;;13.48;11.55;;;24.40;48.70;;;;;;5072228;28;20205;-62
2023/04/09 04:50:24;;;;;;;13.85;12.38;;;24.20;52.40;;;;;;5071802;28;20209;-62
2023/04/09 04:53:13;;;;;;;13.52;12.13;;;24.30;48.70;;;;;;5070586;28;20228;-62
2023/04/09 04:56:01;;;;;;;13.13;11.73;;;24.30;48.80;;;;;;5070997;28;20345;-62
2023/04/09 04:58:49;;;;;;;14.82;12.18;;;24.30;48.60;;;;;;5051342;28;20189;-62
2023/04/09 05:01:38;;;;;;;12.10;10.98;;;24.50;48.00;;;;;;5050796;28;20218;-62
2023/04/09 05:04:26;;;;;;;12.73;11.40;;;24.50;48.40;;;;;;5051394;28;20201;-62
2023/04/09 05:07:14;;;;;;;11.48;9.98;;;24.70;48.40;;;;;;5050925;28;20230;-62
2023/04/09 05:10:04;;;;;;;10.90;9.90;;;24.70;48.20;;;;;;5051414;28;20295;-62
2023/04/09 05:12:52;;;;;;;12.75;10.38;;;24.90;47.70;;;;;;5050266;28;20205;-66
2023/04/09 05:15:41;;;;;;;12.60;11.30;;;24.90;48.10;;;;;;5050697;28;20280;-62
2023/04/09 05:18:29;;;;;;;12.73;11.40;;;24.90;48.70;;;;;;5050755;28;20197;-61
2023/04/09 05:21:17;;;;;;;12.20;10.90;;;24.80;47.60;;;;;;5050295;28;20356;-62
2023/04/09 05:24:05;;;;;;;12.88;11.35;;;24.90;48.20;;;;;;5050514;28;20284;-61
2023/04/09 05:26:55;;;;;;;12.38;11.07;;;24.80;48.20;;;;;;5050520;28;20253;-62
2023/04/09 05:29:43;;;;;;;12.77;11.48;;;24.70;48.20;;;;;;5050157;28;20274;-62
2023/04/09 05:32:31;;;;;;;11.07;9.88;;;24.60;47.60;;;;;;5050087;28;20213;-62
2023/04/09 05:35:19;;;;;;;11.10;9.90;;;24.60;48.30;;;;;;5050395;28;20200;-62
2023/04/09 05:38:07;;;;;;;11.45;10.15;;;24.60;48.40;;;;;;5050451;28;20355;-62
2023/04/09 05:40:56;;;;;;;11.95;10.63;;;24.60;47.80;;;;;;5050456;28;20275;-62
2023/04/09 05:43:45;;;;;;;11.73;10.20;;;24.70;48.40;;;;;;5051316;28;20239;-62
2023/04/09 05:46:33;;;;;;;11.98;10.32;;;24.50;48.20;;;;;;5050433;28;20574;-62
2023/04/09 05:49:21;;;;;;;11.23;10.05;;;24.60;48.40;;;;;;5050475;28;20678;-62
2023/04/09 05:52:09;;;;;;;12.40;10.18;;;24.50;47.70;;;;;;5049941;28;20320;-62
2023/04/09 05:54:57;;;;;;;11.25;10.13;;;24.60;48.40;;;;;;5050300;28;20735;-62
2023/04/09 05:57:46;;;;;;;11.27;10.13;;;24.50;48.20;;;;;;5062809;28;20338;-62
2023/04/09 06:00:35;;;;;;;12.25;11.05;;;24.50;52.50;;;;;;5070710;28;20262;-62
2023/04/09 06:03:23;;;;;;;13.18;9.93;;;24.40;48.30;;;;;;5070608;28;20685;-62
2023/04/09 06:06:13;;;;;;;11.18;10.07;;;24.50;48.40;;;;;;5070823;28;20232;-62
2023/04/09 06:09:01;;;;;;;10.23;9.32;;;24.60;48.50;;;;;;5070655;28;20274;-62
2023/04/09 06:11:49;;;;;;;11.30;10.20;;;24.50;47.80;;;;;;5074050;28;20227;-62
2023/04/09 06:14:37;;;;;;;10.60;9.60;;;24.60;48.50;;;;;;5074077;28;20196;-62
2023/04/09 06:17:27;;;;;;;11.52;10.32;;;24.60;48.30;;;;;;5074954;28;20739;-62
2023/04/09 06:20:15;;;;;;;11.13;9.70;;;24.70;48.30;;;;;;5074514;28;20554;-62
2023/04/09 06:23:03;;;;;;;10.50;9.40;;;24.70;47.70;;;;;;5073966;28;20343;-62
2023/04/09 06:25:51;;;;;;;10.48;9.38;;;24.70;48.20;;;;;;5074009;28;20299;-62
2023/04/09 06:28:39;;;;;;;10.40;9.40;;;24.70;48.10;;;;;;5074766;28;20211;-62
2023/04/09 06:31:27;;;;;;;11.20;10.10;;;24.80;47.70;;;;;;5074251;28;20301;-62
2023/04/09 06:34:17;;;;;;;10.32;9.27;;;24.70;48.10;;;;;;5073466;28;20279;-62
2023/04/09 06:37:05;;;;;;;9.88;8.82;;;24.70;48.10;;;;;;5074162;28;20276;-62
2023/04/09 06:39:53;;;;;;;11.13;10.02;;;24.70;48.20;;;;;;5075006;28;20483;-62
2023/04/09 06:42:48;;;;;;;10.20;9.18;;;24.70;47.80;;;;;;5074957;28;20227;-62
2023/04/09 06:45:37;;;;;;;10.02;9.02;;;24.60;48.30;;;;;;5074121;28;20213;-62
2023/04/09 06:48:28;;;;;;;9.63;8.63;;;24.50;48.40;;;;;;5074034;28;20276;-62
2023/04/09 06:51:17;;;;;;;10.35;9.27;;;24.30;48.00;;;;;;5073899;28;20266;-62
2023/04/09 06:54:05;;;;;;;10.75;9.65;;;24.30;48.60;;;;;;5073975;28;20690;-63
2023/04/09 06:56:53;;;;;;;9.50;8.50;;;24.20;48.60;;;;;;5068504;28;20271;-62
2023/04/09 06:59:41;;;;;;;10.13;9.13;;;24.40;48.90;;;;;;5054402;28;20280;-62
2023/04/09 07:02:29;;;;;;;9.45;8.50;;;24.30;48.20;;;;;;5052718;28;20301;-62
2023/04/09 07:05:18;;;;;;;9.95;8.90;;;24.40;48.60;;;;;;5053598;28;20286;-62
2023/04/09 07:08:07;;;;;;;9.23;8.35;;;24.50;48.50;;;;;;5053702;28;20201;-62
2023/04/09 07:10:56;;;;;;;9.70;8.80;;;24.70;47.70;;;;;;5053517;28;20639;-62
2023/04/09 07:13:44;;;;;;;9.13;8.13;;;24.80;48.20;;;;;;5053113;28;20323;-62
2023/04/09 07:16:32;;;;;;;9.77;8.82;;;24.90;48.10;;;;;;5054156;28;20267;-62
2023/04/09 07:19:20;;;;;;;9.25;8.35;;;25.00;48.20;;;;;;5052767;28;20194;-62
2023/04/09 07:22:08;;;;;;;9.57;8.63;;;25.00;47.50;;;;;;5052462;28;20594;-62
2023/04/09 07:24:57;;;;;;;9.02;8.13;;;25.00;48.00;;;;;;5053255;28;20281;-62
2023/04/09 07:27:45;;;;;;;8.75;8.02;;;25.10;48.00;;;;;;5053823;28;20776;-62
2023/04/09 07:30:33;;;;;;;8.80;7.88;;;25.30;52.30;;;;;;5053167;28;20205;-62
2023/04/09 07:33:22;;;;;;;9.88;8.88;;;25.10;48.00;;;;;;5052381;28;20584;-63
2023/04/09 07:36:10;;;;;;;8.50;7.70;;;24.90;48.00;;;;;;5053212;28;20229;-63
2023/04/09 07:38:58;;;;;;;8.77;7.90;;;24.90;48.10;;;;;;5052357;28;20217;-62
2023/04/09 07:41:47;;;;;;;9.00;8.20;;;24.90;47.60;;;;;;5075655;22;20689;-68
2023/04/09 07:44:36;;;;;;;8.23;7.47;;;24.90;48.10;;;;;;5052535;28;20681;-68
2023/04/09 07:47:24;;;;;;;9.02;8.13;;;24.90;48.10;;;;;;5052583;28;20705;-69
2023/04/09 07:50:12;;;;;;;8.57;7.85;;;24.90;48.20;;;;;;5052579;28;20695;-68
2023/04/09 07:53:00;;;;;;;8.30;7.60;;;24.80;47.60;;;;;;5052633;28;20245;-68
2023/04/09 07:55:50;;;;;;;8.00;7.20;;;24.80;48.20;;;;;;5053392;28;20197;-68
2023/04/09 07:58:39;;;;;;;7.03;6.43;;;25.00;48.40;;;;;;5053150;28;20201;-68
2023/04/09 08:01:27;;;;;;;9.18;8.30;;;24.70;47.80;;;;;;5052446;28;20306;-67
2023/04/09 08:04:16;;;;;;;10.13;8.88;;;24.90;48.40;;;;;;5053205;28;20282;-67
2023/04/09 08:07:04;;;;;;;7.50;6.80;;;24.70;48.30;;;;;;5053038;28;20214;-67
2023/04/09 08:09:52;;;;;;;7.55;6.70;;;24.60;48.30;;;;;;5052794;28;20684;-68
2023/04/09 08:12:40;;;;;;;8.18;7.47;;;24.60;48.00;;;;;;5051831;28;20221;-68
2023/04/09 08:15:29;;;;;;;7.78;6.97;;;24.50;48.50;;;;;;5052321;28;20566;-68
2023/04/09 08:18:17;;;;;;;7.93;7.20;;;24.60;48.70;;;;;;5052728;28;20384;-68
2023/04/09 08:21:06;;;;;;;7.53;6.82;;;24.70;48.10;;;;;;5051968;28;20709;-68
2023/04/09 08:23:58;;;;;;;7.55;6.88;;;24.70;48.70;;;;;;5052008;28;20225;-68
2023/04/09 08:26:46;;;;;;;7.55;6.88;;;24.70;48.50;;;;;;5052931;28;20266;-68
2023/04/09 08:29:34;;;;;;;8.20;7.30;;;24.80;48.40;;;;;;5052044;28;20201;-69
2023/04/09 08:32:23;;;;;;;9.07;8.18;;;25.00;47.80;;;;;;5051476;28;20355;-68
2023/04/09 08:35:12;;;;;;;8.10;7.40;;;25.00;48.30;;;;;;5052402;28;20208;-68
2023/04/09 08:38:00;;;;;;;8.82;6.97;;;25.10;48.30;;;;;;5052305;28;20201;-68
2023/04/09 08:40:48;;;;;;;8.48;7.68;;;25.00;47.90;;;;;;5051032;28;20235;-69
2023/04/09 08:43:38;;;;;;;8.85;8.02;;;25.20;48.20;;;;;;5051056;28;20204;-68
2023/04/09 08:46:44;;;;;;;8.48;7.68;;;25.20;48.10;;;;;;5051347;28;20217;-69
2023/04/09 08:49:34;;;;;;;8.05;7.25;;;25.20;48.30;;;;;;5051172;28;20743;-68
2023/04/09 08:52:32;;;;;;;7.75;7.05;;;25.00;47.80;;;;;;5051530;28;20323;-68
2023/04/09 08:55:20;;;;;;;7.50;6.80;;;25.10;48.40;;;;;;5051689;28;20202;-68
2023/04/09 08:58:09;;;;;;;8.65;7.78;;;25.00;48.50;;;;;;5037321;28;20273;-68
2023/04/09 09:00:57;;;;;;;9.18;8.23;;;25.00;52.90;;;;;;5032035;28;20229;-68
2023/04/09 09:03:54;;;;;;;7.72;6.93;;;24.90;48.60;;;;;;5031587;28;20201;-69
2023/04/09 09:06:44;;;;;;;8.82;8.02;;;24.90;48.70;;;;;;5031775;28;20226;-69
2023/04/09 09:09:32;;;;;;;7.78;7.03;;;24.90;48.60;;;;;;5031978;28;20230;-68
2023/04/09 09:12:38;;;;;;;8.15;7.45;;;25.00;48.20;;;;;;5031237;28;20222;-68
2023/04/09 09:15:29;;;;;;;8.30;7.60;;;25.00;48.60;;;;;;5031130;28;20198;-68
2023/04/09 09:18:17;;;;;;;8.15;7.38;;;25.10;48.60;;;;;;5031142;28;20694;-68
2023/04/09 09:21:16;;;;;;;8.80;8.00;;;25.10;48.00;;;;;;5031407;28;20276;-68
2023/04/09 09:24:16;;;;;;;7.90;7.13;;;25.10;48.60;;;;;;5031428;28;20283;-68
2023/04/09 09:27:04;;;;;;;8.35;7.53;;;25.20;48.50;;;;;;5031599;28;20728;-68
2023/04/09 09:29:52;;;;;;;9.20;7.90;;;25.30;48.60;;;;;;5031656;28;20268;-68
2023/04/09 09:32:41;;;;;;;7.85;7.05;;;25.20;48.00;;;;;;5031203;28;20650;-68
2023/04/09 09:35:29;;;;;;;8.63;7.53;;;25.30;48.60;;;;;;5031403;28;20217;-68
2023/04/09 09:38:18;;;;;;;8.98;8.02;;;25.30;48.60;;;;;;5031604;28;20197;-68
2023/04/09 09:41:18;;;;;;;8.95;8.10;;;25.30;48.00;;;;;;5031459;28;20226;-66
2023/04/09 09:44:07;;;;;;;8.48;7.68;;;25.30;48.50;;;;;;5032206;28;20205;-68
2023/04/09 09:46:56;;;;;;;8.13;7.35;;;25.40;48.60;;;;;;5035599;28;20202;-68
2023/04/09 09:49:44;;;;;;;9.18;8.30;;;25.40;48.60;;;;;;5034690;28;20213;-68
2023/04/09 09:52:32;;;;;;;8.00;7.30;;;25.40;48.00;;;;;;5035318;28;20268;-68
2023/04/09 09:55:24;;;;;;;9.30;8.40;;;25.40;48.60;;;;;;5034975;28;20225;-67
2023/04/09 09:58:19;;;;;;;9.75;8.75;;;25.40;48.60;;;;;;5051195;28;20193;-68
2023/04/09 10:01:10;;;;;;;9.65;8.65;;;25.30;48.10;;;;;;5055623;28;20257;-65
2023/04/09 10:04:00;;;;;;;8.57;7.78;;;25.30;48.70;;;;;;5054861;28;20228;-67
2023/04/09 10:06:50;;;;;;;8.68;7.75;;;25.30;48.70;;;;;;5054207;28;20219;-68
2023/04/09 10:09:42;;;;;;;9.00;8.00;;;25.30;48.80;;;;;;5055653;28;20579;-68
2023/04/09 10:12:30;;;;;;;9.38;8.40;;;25.20;48.40;;;;;;5054125;28;20272;-68
2023/04/09 10:15:20;;;;;;;9.02;8.13;;;25.10;48.90;;;;;;5054430;28;20621;-68
2023/04/09 10:18:08;;;;;;;17.33;10.10;;;25.20;49.00;;;;;;5054691;28;20201;-67
2023/04/09 10:20:59;;;;;;;9.80;8.80;;;25.00;52.80;;;;;;5055172;28;20201;-68
2023/04/09 10:23:49;;;;;;;9.77;8.85;;;25.20;49.00;;;;;;5054943;28;20212;-68
2023/04/09 10:26:40;;;;;;;10.20;8.75;;;25.20;49.00;;;;;;5054232;28;20204;-68
2023/04/09 10:29:29;;;;;;;9.32;8.43;;;25.30;49.10;;;;;;5054589;28;20685;-67
2023/04/09 10:32:25;;;;;;;9.90;8.80;;;25.20;48.50;;;;;;5054925;28;20249;-67
2023/04/09 10:35:25;;;;;;;9.90;8.70;;;25.20;49.00;;;;;;5053858;28;20570;-68
2023/04/09 10:38:14;;;;;;;9.82;8.82;;;25.20;49.00;;;;;;5054487;28;20231;-67
2023/04/09 10:41:13;;;;;;;10.85;8.80;;;25.20;48.70;;;;;;5053524;28;20224;-68
2023/04/09 10:44:06;;;;;;;10.15;9.13;;;25.20;49.20;;;;;;5053903;28;20197;-68
2023/04/09 10:46:55;;;;;;;9.80;8.75;;;25.10;49.20;;;;;;5054570;28;20211;-67
2023/04/09 10:49:44;;;;;;;9.60;8.70;;;25.10;49.30;;;;;;5053843;28;20233;-67
2023/04/09 10:52:33;;;;;;;10.18;9.20;;;25.00;49.00;;;;;;5053716;28;20221;-67
2023/04/09 10:55:34;;;;;;;10.60;9.50;;;24.90;49.60;;;;;;5053208;28;20678;-68
2023/04/09 10:58:22;;;;;;;10.57;9.48;;;24.80;49.50;;;;;;5036953;28;20201;-68
2023/04/09 11:01:10;;;;;;;11.07;9.55;;;24.90;49.00;;;;;;5034509;28;20283;-67
2023/04/09 11:04:08;;;;;;;9.35;8.45;;;25.00;49.60;;;;;;5034974;28;20242;-68
2023/04/09 11:07:00;;;;;;;9.88;8.63;;;25.00;49.60;;;;;;5033458;28;20285;-68
2023/04/09 11:09:49;;;;;;;9.73;8.30;;;25.10;49.40;;;;;;5034316;28;20234;-68
2023/04/09 11:12:37;;;;;;;10.07;8.73;;;25.30;48.80;;;;;;5034230;28;20653;-68
2023/04/09 11:15:25;;;;;;;10.75;9.65;;;25.30;49.20;;;;;;5034090;28;20271;-68
2023/04/09 11:18:20;;;;;;;10.10;9.10;;;25.40;49.20;;;;;;5034288;28;20617;-68
2023/04/09 11:21:09;;;;;;;11.52;10.35;;;25.40;48.50;;;;;;5034072;28;20725;-67
2023/04/09 11:23:58;;;;;;;11.13;9.63;;;25.50;49.10;;;;;;5035114;28;20288;-68
2023/04/09 11:26:48;;;;;;;9.20;8.23;;;25.40;49.00;;;;;;5034745;28;20320;-67
2023/04/09 11:29:36;;;;;;;8.32;7.53;;;25.40;49.00;;;;;;5033966;28;20285;-68
2023/04/09 11:32:29;;;;;;;11.20;9.02;;;25.40;48.60;;;;;;5034206;28;20226;-67
2023/04/09 11:35:19;;;;;;;10.20;9.20;;;25.50;49.30;;;;;;5034010;28;20284;-68
2023/04/09 11:38:09;;;;;;;9.20;8.30;;;25.40;49.20;;;;;;5033683;28;20242;-70
2023/04/09 11:40:58;;;;;;;9.43;8.35;;;25.30;53.80;;;;;;5033799;28;20198;-67
2023/04/09 11:43:46;;;;;;;9.57;8.57;;;25.40;49.20;;;;;;5033597;28;20230;-67
2023/04/09 11:46:35;;;;;;;8.48;7.57;;;25.40;49.20;;;;;;5032800;28;20283;-68
2023/04/09 11:49:24;;;;;;;10.10;9.02;;;25.50;49.20;;;;;;5033814;28;20716;-68
2023/04/09 11:52:12;;;;;;;8.60;7.72;;;25.50;48.60;;;;;;5033631;28;20311;-68
2023/04/09 11:55:01;;;;;;;10.48;8.30;;;25.50;49.20;;;;;;5033644;28;20279;-68
2023/04/09 11:57:52;;;;;;;9.27;8.38;;;25.50;49.20;;;;;;5045548;28;20215;-66
2023/04/09 12:00:40;;;;;;;9.70;8.27;;;25.60;49.20;;;;;;5053465;28;20216;-68
2023/04/09 12:03:31;;;;;;;10.98;9.57;;;25.50;49.10;;;;;;5052674;28;20683;-68
2023/04/09 12:06:21;;;;;;;8.38;7.57;;;25.40;49.10;;;;;;5053671;28;20208;-69
2023/04/09 12:09:12;;;;;;;9.15;8.27;;;25.40;49.20;;;;;;5051731;28;20218;-67
2023/04/09 12:12:01;;;;;;;9.10;8.18;;;25.40;48.70;;;;;;5052836;28;20275;-68
2023/04/09 12:14:50;;;;;;;12.40;9.85;;;25.40;49.30;;;;;;5053707;28;20681;-68
2023/04/09 12:17:38;;;;;;;8.48;7.50;;;25.40;49.40;;;;;;5053065;28;20725;-68
2023/04/09 12:20:33;;;;;;;8.95;8.15;;;25.40;49.40;;;;;;5052746;28;20209;-68
2023/04/09 12:23:21;;;;;;;8.00;7.20;;;25.40;49.40;;;;;;5053127;28;20268;-68
2023/04/09 12:26:09;;;;;;;9.50;8.65;;;25.60;49.50;;;;;;5052260;28;20284;-67
2023/04/09 12:28:57;;;;;;;8.15;7.35;;;25.60;49.40;;;;;;5052244;28;20264;-68
2023/04/09 12:31:47;;;;;;;9.00;8.10;;;25.60;48.80;;;;;;5052322;28;20229;-67
2023/04/09 12:34:35;;;;;;;8.68;7.72;;;25.60;49.30;;;;;;5052885;28;20247;-68
2023/04/09 12:37:23;;;;;;;8.77;7.97;;;25.60;49.20;;;;;;5052632;28;20331;-67
2023/04/09 12:40:12;;;;;;;7.60;6.90;;;25.70;49.20;;;;;;5051702;28;20194;-68
2023/04/09 12:43:01;;;;;;;8.20;7.40;;;25.70;48.60;;;;;;5050808;28;20602;-67
2023/04/09 12:45:49;;;;;;;9.00;8.13;;;25.70;49.10;;;;;;5052430;28;20575;-67
2023/04/09 12:48:38;;;;;;;9.05;8.15;;;25.60;49.10;;;;;;5051529;28;20221;-68
2023/04/09 12:51:27;;;;;;;8.70;7.80;;;25.60;48.70;;;;;;5052138;28;20248;-67
2023/04/09 12:54:15;;;;;;;7.88;7.07;;;25.50;49.20;;;;;;5051493;28;20280;-68
2023/04/09 12:57:03;;;;;;;7.53;6.65;;;25.70;49.30;;;;;;5045493;28;20202;-67
2023/04/09 12:59:51;;;;;;;7.28;6.57;;;25.50;49.20;;;;;;5032023;28;20336;-68
2023/04/09 13:02:39;;;;;;;8.80;7.90;;;25.60;48.80;;;;;;5030972;28;20225;-67
2023/04/09 13:05:30;;;;;;;9.45;8.50;;;25.50;49.30;;;;;;5031880;28;20198;-68
2023/04/09 13:08:18;;;;;;;7.60;6.90;;;25.40;49.30;;;;;;5032288;28;20205;-67
2023/04/09 13:11:06;;;;;;;8.68;7.63;;;25.50;49.40;;;;;;5032121;28;20251;-68
2023/04/09 13:13:55;;;;;;;7.97;7.20;;;24.50;49.30;;;;;;5031835;28;20260;-68
2023/04/09 13:16:43;;;;;;;8.30;7.50;;;25.50;49.30;;;;;;5031520;28;20206;-68
2023/04/09 13:19:31;;;;;;;9.02;8.13;;;25.60;49.30;;;;;;5031893;28;20205;-67
2023/04/09 13:22:20;;;;;;;7.80;7.00;;;25.60;48.70;;;;;;5032519;28;20249;-68
2023/04/09 13:25:09;;;;;;;7.45;6.72;;;25.70;49.20;;;;;;5031848;28;20281;-67
2023/04/09 13:27:57;;;;;;;7.38;6.68;;;25.70;49.10;;;;;;5031404;28;20202;-68
2023/04/09 13:30:47;;;;;;;7.07;6.38;;;25.80;48.80;;;;;;5031303;28;20237;-67
2023/04/09 13:33:36;;;;;;;7.65;6.85;;;25.80;49.20;;;;;;5031292;28;20675;-66
2023/04/09 13:36:24;;;;;;;7.25;6.63;;;;;;;;;;5031675;28;20257;-68
2023/04/09 13:39:14;;;;;;;7.28;6.57;;;25.80;48.60;;;;;;5031191;28;20194;-68
2023/04/09 13:42:02;;;;;;;7.22;6.57;;;25.90;49.20;;;;;;5031875;28;20296;-66
2023/04/09 13:45:00;;;;;;;6.80;6.15;;;25.80;49.10;;;;;;5031532;28;20280;-66
2023/04/09 13:47:48;;;;;;;7.32;6.63;;;26.00;49.10;;;;;;5031428;28;20238;-66
2023/04/09 13:50:37;;;;;;;7.45;6.75;;;25.90;49.00;;;;;;5031300;28;20724;-66
2023/04/09 13:53:25;;;;;;;7.40;6.70;;;26.00;49.00;;;;;;5031062;28;20789;-66
2023/04/09 13:56:14;;;;;;;8.52;7.43;;;26.00;48.90;;;;;;5030902;28;20665;-66
2023/04/09 13:59:02;;;;;;;7.35;6.75;;;26.20;49.00;;;;;;5030241;28;20481;-66
2023/04/09 14:01:50;;;;;;;7.68;6.90;;;26.20;48.30;;;;;;5030922;28;20663;-66
2023/04/09 14:04:38;;;;;;;7.40;6.68;;;26.20;48.80;;;;;;5030533;28;20209;-66
2023/04/09 14:07:27;;;;;;;7.57;6.78;;;26.20;48.70;;;;;;5031219;28;20333;-67
2023/04/09 14:10:15;;;;;;;7.30;6.60;;;26.30;48.80;;;;;;5031171;28;20333;-66
2023/04/09 14:13:06;;;;;;;7.85;7.07;;;26.30;49.40;;;;;;5031003;28;20222;-66
2023/04/09 14:15:54;;;;;;;7.95;6.40;;;26.30;48.80;;;;;;5030644;28;20206;-66
2023/04/09 14:18:42;;;;;;;6.85;6.25;;;26.20;48.70;;;;;;5030399;28;20627;-66
2023/04/09 14:21:30;;;;;;;6.85;6.15;;;26.30;48.80;;;;;;5030453;28;20705;-66
2023/04/09 14:24:21;;;;;;;7.18;6.50;;;26.20;48.80;;;;;;5030603;28;20281;-66
2023/04/09 14:27:09;;;;;;;7.22;6.53;;;26.10;48.80;;;;;;5030753;28;20270;-66
2023/04/09 14:29:59;;;;;;;6.82;6.00;;;26.20;48.90;;;;;;5030689;28;20305;-66
2023/04/09 14:32:47;;;;;;;7.68;6.93;;;26.20;48.90;;;;;;5034059;28;20230;-66